sensor_id;sensor_type;location;lat;lon;timestamp;P1;durP1;ratioP1;P2;durP2;ratioP2
43435;SDS011;36399;51.444;-2.018;2023-05-10T00:01:09;31.23;;;10.07;;
43435;SDS011;36399;51.444;-2.018;2023-05-10T00:03:35;24.47;;;9.53;;
43435;SDS011;36399;51.444;-2.018;2023-05-10T00:06:01;27.90;;;9.27;;
43435;SDS011;36399;51.444;-2.018;2023-05-10T00:08:28;27.07;;;10.00;;
43435;SDS011;36399;51.444;-2.018;2023-05-10T00:10:54;25.67;;;9.83;;
43435;SDS011;36399;51.444;-2.018;2023-05-10T00:13:20;21.10;;;9.00;;
43435;SDS011;36399;51.444;-2.018;2023-05-10T00:15:45;22.27;;;8.40;;
43435;SDS011;36399;51.444;-2.018;2023-05-10T00:18:11;21.50;;;9.30;;
43435;SDS011;36399;51.444;-2.018;2023-05-10T00:20:37;22.43;;;8.33;;
43435;SDS011;36399;51.444;-2.018;2023-05-10T00:23:03;27.63;;;10.73;;
43435;SDS011;36399;51.444;-2.018;2023-05-10T00:25:31;22.60;;;9.37;;
43435;SDS011;36399;51.444;-2.018;2023-05-10T00:27:57;27.93;;;9.63;;
43435;SDS011;36399;51.444;-2.018;2023-05-10T00:30:23;20.57;;;9.67;;
43435;SDS011;36399;51.444;-2.018;2023-05-10T00:32:49;20.63;;;8.63;;
43435;SDS011;36399;51.444;-2.018;2023-05-10T00:35:15;29.43;;;8.17;;
43435;SDS011;36399;51.444;-2.018;2023-05-10T00:37:41;26.07;;;8.80;;
43435;SDS011;36399;51.444;-2.018;2023-05-10T00:40:07;25.30;;;8.90;;
43435;SDS011;36399;51.444;-2.018;2023-05-10T00:42:34;19.50;;;9.50;;
43435;SDS011;36399;51.444;-2.018;2023-05-10T00:45:00;25.60;;;10.33;;
43435;SDS011;36399;51.444;-2.018;2023-05-10T00:47:25;25.30;;;9.73;;
43435;SDS011;36399;51.444;-2.018;2023-05-10T00:49:51;24.83;;;9.07;;
43435;SDS011;36399;51.444;-2.018;2023-05-10T00:52:17;26.10;;;9.57;;
43435;SDS011;36399;51.444;-2.018;2023-05-10T00:54:43;28.30;;;10.00;;
43435;SDS011;36399;51.444;-2.018;2023-05-10T00:57:10;23.43;;;10.10;;
43435;SDS011;36399;51.444;-2.018;2023-05-10T00:59:36;21.70;;;8.27;;
43435;SDS011;36399;51.444;-2.018;2023-05-10T01:02:02;27.77;;;9.37;;
43435;SDS011;36399;51.444;-2.018;2023-05-10T01:04:28;31.27;;;10.93;;
43435;SDS011;36399;51.444;-2.018;2023-05-10T01:06:55;31.17;;;11.27;;
43435;SDS011;36399;51.444;-2.018;2023-05-10T01:09:21;30.33;;;10.10;;
43435;SDS011;36399;51.444;-2.018;2023-05-10T01:11:48;30.33;;;11.40;;
43435;SDS011;36399;51.444;-2.018;2023-05-10T01:14:14;33.80;;;12.63;;
43435;SDS011;36399;51.444;-2.018;2023-05-10T01:16:44;32.43;;;11.50;;
43435;SDS011;36399;51.444;-2.018;2023-05-10T01:19:17;39.37;;;13.40;;
43435;SDS011;36399;51.444;-2.018;2023-05-10T01:21:49;39.78;;;14.13;;
43435;SDS011;36399;51.444;-2.018;2023-05-10T01:32:52;43.40;;;14.67;;
43435;SDS011;36399;51.444;-2.018;2023-05-10T01:35:47;44.67;;;14.83;;
43435;SDS011;36399;51.444;-2.018;2023-05-10T01:38:38;53.53;;;16.10;;
43435;SDS011;36399;51.444;-2.018;2023-05-10T01:47:14;44.25;;;16.17;;
43435;SDS011;36399;51.444;-2.018;2023-05-10T01:49:49;43.23;;;16.53;;
43435;SDS011;36399;51.444;-2.018;2023-05-10T01:52:18;46.60;;;18.87;;
43435;SDS011;36399;51.444;-2.018;2023-05-10T01:54:49;47.80;;;18.17;;
43435;SDS011;36399;51.444;-2.018;2023-05-10T01:57:20;53.75;;;18.98;;
43435;SDS011;36399;51.444;-2.018;2023-05-10T01:59:50;45.63;;;16.07;;
43435;SDS011;36399;51.444;-2.018;2023-05-10T02:02:18;57.17;;;18.33;;
43435;SDS011;36399;51.444;-2.018;2023-05-10T02:04:46;48.97;;;18.47;;
43435;SDS011;36399;51.444;-2.018;2023-05-10T02:07:15;52.10;;;19.93;;
43435;SDS011;36399;51.444;-2.018;2023-05-10T02:09:43;50.70;;;17.30;;
43435;SDS011;36399;51.444;-2.018;2023-05-10T02:12:13;52.90;;;19.83;;
43435;SDS011;36399;51.444;-2.018;2023-05-10T02:14:41;56.33;;;20.67;;
43435;SDS011;36399;51.444;-2.018;2023-05-10T02:17:08;58.67;;;20.50;;
43435;SDS011;36399;51.444;-2.018;2023-05-10T02:19:36;53.70;;;19.83;;
43435;SDS011;36399;51.444;-2.018;2023-05-10T02:22:04;54.10;;;20.47;;
43435;SDS011;36399;51.444;-2.018;2023-05-10T02:24:33;57.03;;;20.47;;
43435;SDS011;36399;51.444;-2.018;2023-05-10T02:27:01;60.27;;;19.87;;
43435;SDS011;36399;51.444;-2.018;2023-05-10T02:29:29;49.23;;;17.40;;
43435;SDS011;36399;51.444;-2.018;2023-05-10T02:31:56;49.37;;;19.67;;
43435;SDS011;36399;51.444;-2.018;2023-05-10T02:34:25;58.17;;;20.90;;
43435;SDS011;36399;51.444;-2.018;2023-05-10T02:36:53;51.57;;;20.37;;
43435;SDS011;36399;51.444;-2.018;2023-05-10T02:39:20;63.37;;;21.83;;
43435;SDS011;36399;51.444;-2.018;2023-05-10T02:41:47;54.67;;;19.77;;
43435;SDS011;36399;51.444;-2.018;2023-05-10T02:44:17;59.50;;;20.30;;
43435;SDS011;36399;51.444;-2.018;2023-05-10T02:46:45;54.00;;;19.50;;
43435;SDS011;36399;51.444;-2.018;2023-05-10T02:49:12;49.63;;;18.87;;
43435;SDS011;36399;51.444;-2.018;2023-05-10T02:51:40;53.70;;;19.40;;
43435;SDS011;36399;51.444;-2.018;2023-05-10T02:54:11;55.00;;;19.43;;
43435;SDS011;36399;51.444;-2.018;2023-05-10T02:56:43;57.17;;;20.50;;
43435;SDS011;36399;51.444;-2.018;2023-05-10T02:59:15;66.60;;;20.60;;
43435;SDS011;36399;51.444;-2.018;2023-05-10T03:01:42;59.07;;;21.70;;
43435;SDS011;36399;51.444;-2.018;2023-05-10T03:04:07;62.53;;;19.23;;
43435;SDS011;36399;51.444;-2.018;2023-05-10T03:06:33;60.63;;;20.73;;
43435;SDS011;36399;51.444;-2.018;2023-05-10T03:09:00;60.97;;;20.20;;
43435;SDS011;36399;51.444;-2.018;2023-05-10T03:11:43;61.87;;;19.13;;
43435;SDS011;36399;51.444;-2.018;2023-05-10T03:14:26;53.27;;;18.90;;
43435;SDS011;36399;51.444;-2.018;2023-05-10T03:17:24;55.67;;;20.33;;
43435;SDS011;36399;51.444;-2.018;2023-05-10T03:20:12;58.93;;;21.13;;
43435;SDS011;36399;51.444;-2.018;2023-05-10T03:22:50;62.57;;;20.30;;
43435;SDS011;36399;51.444;-2.018;2023-05-10T03:25:19;63.55;;;20.90;;
43435;SDS011;36399;51.444;-2.018;2023-05-10T03:27:47;61.47;;;21.23;;
43435;SDS011;36399;51.444;-2.018;2023-05-10T03:30:13;65.00;;;21.43;;
43435;SDS011;36399;51.444;-2.018;2023-05-10T03:32:39;65.20;;;22.73;;
43435;SDS011;36399;51.444;-2.018;2023-05-10T03:35:09;61.43;;;21.33;;
43435;SDS011;36399;51.444;-2.018;2023-05-10T03:37:36;69.27;;;22.27;;
43435;SDS011;36399;51.444;-2.018;2023-05-10T03:40:02;62.43;;;20.97;;
43435;SDS011;36399;51.444;-2.018;2023-05-10T03:42:28;54.47;;;20.47;;
43435;SDS011;36399;51.444;-2.018;2023-05-10T03:44:54;53.63;;;21.87;;
43435;SDS011;36399;51.444;-2.018;2023-05-10T03:47:20;66.27;;;22.47;;
43435;SDS011;36399;51.444;-2.018;2023-05-10T03:49:46;63.10;;;23.10;;
43435;SDS011;36399;51.444;-2.018;2023-05-10T03:52:12;66.90;;;22.67;;
43435;SDS011;36399;51.444;-2.018;2023-05-10T03:54:38;67.07;;;21.57;;
43435;SDS011;36399;51.444;-2.018;2023-05-10T03:57:04;60.23;;;21.97;;
43435;SDS011;36399;51.444;-2.018;2023-05-10T03:59:30;63.67;;;21.83;;
43435;SDS011;36399;51.444;-2.018;2023-05-10T04:01:56;61.67;;;20.10;;
43435;SDS011;36399;51.444;-2.018;2023-05-10T04:04:22;66.90;;;20.57;;
43435;SDS011;36399;51.444;-2.018;2023-05-10T04:06:48;64.20;;;21.80;;
43435;SDS011;36399;51.444;-2.018;2023-05-10T04:09:15;50.13;;;18.53;;
43435;SDS011;36399;51.444;-2.018;2023-05-10T04:11:42;58.53;;;20.83;;
43435;SDS011;36399;51.444;-2.018;2023-05-10T04:14:08;50.27;;;19.37;;
43435;SDS011;36399;51.444;-2.018;2023-05-10T04:16:34;51.53;;;18.10;;
43435;SDS011;36399;51.444;-2.018;2023-05-10T04:19:00;47.83;;;18.60;;
43435;SDS011;36399;51.444;-2.018;2023-05-10T04:21:26;56.77;;;19.20;;
43435;SDS011;36399;51.444;-2.018;2023-05-10T04:23:52;44.27;;;15.17;;
43435;SDS011;36399;51.444;-2.018;2023-05-10T04:26:18;42.93;;;16.73;;
43435;SDS011;36399;51.444;-2.018;2023-05-10T04:28:44;49.50;;;16.37;;
43435;SDS011;36399;51.444;-2.018;2023-05-10T04:31:10;45.33;;;16.77;;
43435;SDS011;36399;51.444;-2.018;2023-05-10T04:33:36;45.63;;;15.40;;
43435;SDS011;36399;51.444;-2.018;2023-05-10T04:36:02;50.17;;;17.77;;
43435;SDS011;36399;51.444;-2.018;2023-05-10T04:38:29;52.97;;;19.00;;
43435;SDS011;36399;51.444;-2.018;2023-05-10T04:41:03;39.00;;;16.10;;
43435;SDS011;36399;51.444;-2.018;2023-05-10T04:43:29;40.30;;;15.60;;
43435;SDS011;36399;51.444;-2.018;2023-05-10T04:45:56;36.83;;;12.50;;
43435;SDS011;36399;51.444;-2.018;2023-05-10T04:48:22;39.37;;;14.43;;
43435;SDS011;36399;51.444;-2.018;2023-05-10T04:50:48;46.43;;;16.43;;
43435;SDS011;36399;51.444;-2.018;2023-05-10T04:53:14;54.87;;;16.47;;
43435;SDS011;36399;51.444;-2.018;2023-05-10T04:55:40;41.77;;;15.20;;
43435;SDS011;36399;51.444;-2.018;2023-05-10T04:58:06;44.47;;;16.27;;
43435;SDS011;36399;51.444;-2.018;2023-05-10T05:00:33;43.40;;;17.27;;
43435;SDS011;36399;51.444;-2.018;2023-05-10T05:02:59;48.17;;;15.53;;
43435;SDS011;36399;51.444;-2.018;2023-05-10T05:05:25;45.60;;;15.53;;
43435;SDS011;36399;51.444;-2.018;2023-05-10T05:07:51;38.27;;;14.83;;
43435;SDS011;36399;51.444;-2.018;2023-05-10T05:10:17;50.57;;;15.93;;
43435;SDS011;36399;51.444;-2.018;2023-05-10T05:12:43;42.10;;;15.17;;
43435;SDS011;36399;51.444;-2.018;2023-05-10T05:15:09;42.90;;;14.87;;
43435;SDS011;36399;51.444;-2.018;2023-05-10T05:17:36;44.83;;;14.80;;
43435;SDS011;36399;51.444;-2.018;2023-05-10T05:20:02;41.20;;;14.70;;
43435;SDS011;36399;51.444;-2.018;2023-05-10T05:22:31;50.77;;;16.53;;
43435;SDS011;36399;51.444;-2.018;2023-05-10T05:24:57;35.93;;;13.67;;
43435;SDS011;36399;51.444;-2.018;2023-05-10T05:27:28;38.17;;;14.13;;
43435;SDS011;36399;51.444;-2.018;2023-05-10T05:29:54;44.67;;;15.17;;
43435;SDS011;36399;51.444;-2.018;2023-05-10T05:32:24;40.00;;;14.97;;
43435;SDS011;36399;51.444;-2.018;2023-05-10T05:34:50;41.70;;;13.33;;
43435;SDS011;36399;51.444;-2.018;2023-05-10T05:37:17;42.30;;;14.33;;
43435;SDS011;36399;51.444;-2.018;2023-05-10T05:39:44;37.53;;;13.93;;
43435;SDS011;36399;51.444;-2.018;2023-05-10T05:42:11;37.30;;;14.30;;
43435;SDS011;36399;51.444;-2.018;2023-05-10T05:44:38;40.53;;;13.70;;
43435;SDS011;36399;51.444;-2.018;2023-05-10T05:47:03;40.13;;;15.03;;
43435;SDS011;36399;51.444;-2.018;2023-05-10T05:49:30;38.57;;;13.27;;
43435;SDS011;36399;51.444;-2.018;2023-05-10T05:51:59;38.43;;;13.83;;
43435;SDS011;36399;51.444;-2.018;2023-05-10T05:54:26;36.50;;;14.57;;
43435;SDS011;36399;51.444;-2.018;2023-05-10T05:56:56;36.50;;;13.17;;
43435;SDS011;36399;51.444;-2.018;2023-05-10T05:59:23;39.93;;;14.17;;
43435;SDS011;36399;51.444;-2.018;2023-05-10T06:01:49;40.37;;;15.10;;
43435;SDS011;36399;51.444;-2.018;2023-05-10T06:04:16;49.10;;;15.00;;
43435;SDS011;36399;51.444;-2.018;2023-05-10T06:06:42;34.63;;;15.07;;
43435;SDS011;36399;51.444;-2.018;2023-05-10T06:09:09;41.07;;;15.90;;
43435;SDS011;36399;51.444;-2.018;2023-05-10T06:11:35;35.57;;;13.80;;
43435;SDS011;36399;51.444;-2.018;2023-05-10T06:14:01;51.30;;;16.27;;
43435;SDS011;36399;51.444;-2.018;2023-05-10T06:16:29;37.83;;;14.30;;
43435;SDS011;36399;51.444;-2.018;2023-05-10T06:18:55;38.97;;;12.73;;
43435;SDS011;36399;51.444;-2.018;2023-05-10T06:21:21;42.90;;;15.60;;
43435;SDS011;36399;51.444;-2.018;2023-05-10T06:23:47;42.57;;;14.57;;
43435;SDS011;36399;51.444;-2.018;2023-05-10T06:26:13;37.53;;;14.20;;
43435;SDS011;36399;51.444;-2.018;2023-05-10T06:28:39;39.73;;;14.80;;
43435;SDS011;36399;51.444;-2.018;2023-05-10T06:31:06;43.87;;;15.30;;
43435;SDS011;36399;51.444;-2.018;2023-05-10T06:33:32;47.87;;;16.40;;
43435;SDS011;36399;51.444;-2.018;2023-05-10T06:35:59;44.00;;;15.23;;
43435;SDS011;36399;51.444;-2.018;2023-05-10T06:38:25;39.67;;;15.50;;
43435;SDS011;36399;51.444;-2.018;2023-05-10T06:40:51;52.20;;;15.60;;
43435;SDS011;36399;51.444;-2.018;2023-05-10T06:43:17;36.93;;;14.40;;
43435;SDS011;36399;51.444;-2.018;2023-05-10T06:45:43;34.53;;;11.57;;
43435;SDS011;36399;51.444;-2.018;2023-05-10T06:48:09;39.23;;;13.10;;
43435;SDS011;36399;51.444;-2.018;2023-05-10T06:50:35;36.27;;;13.43;;
43435;SDS011;36399;51.444;-2.018;2023-05-10T06:53:01;29.03;;;12.73;;
43435;SDS011;36399;51.444;-2.018;2023-05-10T06:55:27;35.43;;;14.83;;
43435;SDS011;36399;51.444;-2.018;2023-05-10T06:57:53;26.10;;;11.73;;
43435;SDS011;36399;51.444;-2.018;2023-05-10T07:00:19;28.67;;;11.67;;
43435;SDS011;36399;51.444;-2.018;2023-05-10T07:02:46;26.03;;;11.17;;
43435;SDS011;36399;51.444;-2.018;2023-05-10T07:05:12;27.53;;;9.83;;
43435;SDS011;36399;51.444;-2.018;2023-05-10T07:07:38;24.73;;;10.70;;
43435;SDS011;36399;51.444;-2.018;2023-05-10T07:10:05;24.77;;;11.10;;
43435;SDS011;36399;51.444;-2.018;2023-05-10T07:12:31;18.97;;;8.17;;
43435;SDS011;36399;51.444;-2.018;2023-05-10T07:14:57;19.93;;;8.77;;
43435;SDS011;36399;51.444;-2.018;2023-05-10T07:17:23;21.20;;;8.23;;
43435;SDS011;36399;51.444;-2.018;2023-05-10T07:19:49;18.40;;;7.23;;
43435;SDS011;36399;51.444;-2.018;2023-05-10T07:22:15;18.50;;;7.27;;
43435;SDS011;36399;51.444;-2.018;2023-05-10T07:24:42;20.43;;;7.63;;
43435;SDS011;36399;51.444;-2.018;2023-05-10T07:27:08;15.63;;;6.50;;
43435;SDS011;36399;51.444;-2.018;2023-05-10T07:29:34;16.60;;;6.63;;
43435;SDS011;36399;51.444;-2.018;2023-05-10T07:32:02;21.93;;;6.47;;
43435;SDS011;36399;51.444;-2.018;2023-05-10T07:34:28;15.87;;;6.90;;
43435;SDS011;36399;51.444;-2.018;2023-05-10T07:36:57;20.10;;;6.93;;
43435;SDS011;36399;51.444;-2.018;2023-05-10T07:39:24;13.67;;;5.03;;
43435;SDS011;36399;51.444;-2.018;2023-05-10T07:41:51;11.53;;;4.00;;
43435;SDS011;36399;51.444;-2.018;2023-05-10T07:44:17;10.83;;;4.93;;
43435;SDS011;36399;51.444;-2.018;2023-05-10T07:46:46;12.07;;;4.43;;
43435;SDS011;36399;51.444;-2.018;2023-05-10T07:49:13;12.20;;;4.50;;
43435;SDS011;36399;51.444;-2.018;2023-05-10T07:51:39;15.10;;;4.37;;
43435;SDS011;36399;51.444;-2.018;2023-05-10T07:54:05;16.03;;;5.10;;
43435;SDS011;36399;51.444;-2.018;2023-05-10T07:56:31;13.00;;;4.07;;
43435;SDS011;36399;51.444;-2.018;2023-05-10T07:58:58;12.57;;;3.70;;
43435;SDS011;36399;51.444;-2.018;2023-05-10T08:01:25;9.30;;;2.97;;
43435;SDS011;36399;51.444;-2.018;2023-05-10T08:03:52;9.07;;;2.63;;
43435;SDS011;36399;51.444;-2.018;2023-05-10T08:06:19;10.83;;;3.00;;
43435;SDS011;36399;51.444;-2.018;2023-05-10T08:08:46;9.57;;;3.53;;
43435;SDS011;36399;51.444;-2.018;2023-05-10T08:11:15;15.83;;;4.17;;
43435;SDS011;36399;51.444;-2.018;2023-05-10T08:13:46;9.97;;;2.87;;
43435;SDS011;36399;51.444;-2.018;2023-05-10T08:16:13;8.70;;;3.23;;
43435;SDS011;36399;51.444;-2.018;2023-05-10T08:18:39;8.77;;;2.43;;
43435;SDS011;36399;51.444;-2.018;2023-05-10T08:21:06;8.13;;;2.80;;
43435;SDS011;36399;51.444;-2.018;2023-05-10T08:23:32;11.20;;;3.07;;
43435;SDS011;36399;51.444;-2.018;2023-05-10T08:25:58;10.20;;;3.77;;
43435;SDS011;36399;51.444;-2.018;2023-05-10T08:28:24;17.20;;;3.37;;
43435;SDS011;36399;51.444;-2.018;2023-05-10T08:30:51;9.27;;;2.93;;
43435;SDS011;36399;51.444;-2.018;2023-05-10T08:33:17;8.10;;;2.90;;
43435;SDS011;36399;51.444;-2.018;2023-05-10T08:35:44;13.33;;;3.27;;
43435;SDS011;36399;51.444;-2.018;2023-05-10T08:38:10;7.83;;;2.63;;
43435;SDS011;36399;51.444;-2.018;2023-05-10T08:40:36;14.13;;;3.30;;
43435;SDS011;36399;51.444;-2.018;2023-05-10T08:43:06;11.13;;;3.17;;
43435;SDS011;36399;51.444;-2.018;2023-05-10T08:45:44;8.40;;;2.57;;
43435;SDS011;36399;51.444;-2.018;2023-05-10T08:48:13;9.50;;;2.53;;
43435;SDS011;36399;51.444;-2.018;2023-05-10T08:50:41;8.63;;;2.73;;
43435;SDS011;36399;51.444;-2.018;2023-05-10T08:53:11;7.77;;;2.67;;
43435;SDS011;36399;51.444;-2.018;2023-05-10T08:55:39;5.00;;;1.93;;
43435;SDS011;36399;51.444;-2.018;2023-05-10T08:58:07;8.80;;;2.73;;
43435;SDS011;36399;51.444;-2.018;2023-05-10T09:00:34;5.43;;;2.37;;
43435;SDS011;36399;51.444;-2.018;2023-05-10T09:03:01;8.83;;;2.67;;
43435;SDS011;36399;51.444;-2.018;2023-05-10T09:05:28;9.85;;;2.40;;
43435;SDS011;36399;51.444;-2.018;2023-05-10T09:07:54;10.60;;;3.20;;
43435;SDS011;36399;51.444;-2.018;2023-05-10T09:10:20;8.50;;;2.80;;
43435;SDS011;36399;51.444;-2.018;2023-05-10T09:12:48;6.43;;;2.33;;
43435;SDS011;36399;51.444;-2.018;2023-05-10T09:15:15;6.32;;;2.50;;
43435;SDS011;36399;51.444;-2.018;2023-05-10T09:17:44;6.22;;;2.47;;
43435;SDS011;36399;51.444;-2.018;2023-05-10T09:20:11;11.95;;;4.03;;
43435;SDS011;36399;51.444;-2.018;2023-05-10T09:22:37;7.95;;;3.03;;
43435;SDS011;36399;51.444;-2.018;2023-05-10T09:25:10;9.70;;;4.50;;
43435;SDS011;36399;51.444;-2.018;2023-05-10T09:27:41;7.83;;;3.07;;
43435;SDS011;36399;51.444;-2.018;2023-05-10T09:30:10;10.00;;;3.30;;
43435;SDS011;36399;51.444;-2.018;2023-05-10T09:32:45;9.03;;;2.93;;
43435;SDS011;36399;51.444;-2.018;2023-05-10T09:35:13;5.90;;;2.07;;
43435;SDS011;36399;51.444;-2.018;2023-05-10T09:37:41;9.27;;;3.30;;
43435;SDS011;36399;51.444;-2.018;2023-05-10T09:40:16;8.80;;;3.23;;
43435;SDS011;36399;51.444;-2.018;2023-05-10T09:42:50;10.27;;;2.63;;
43435;SDS011;36399;51.444;-2.018;2023-05-10T09:45:41;8.37;;;2.40;;
43435;SDS011;36399;51.444;-2.018;2023-05-10T09:48:07;5.90;;;2.63;;
43435;SDS011;36399;51.444;-2.018;2023-05-10T09:50:33;7.13;;;2.27;;
43435;SDS011;36399;51.444;-2.018;2023-05-10T09:53:00;10.40;;;2.97;;
43435;SDS011;36399;51.444;-2.018;2023-05-10T09:55:41;6.53;;;2.17;;
43435;SDS011;36399;51.444;-2.018;2023-05-10T09:58:12;9.18;;;2.33;;
43435;SDS011;36399;51.444;-2.018;2023-05-10T10:00:39;7.00;;;2.30;;
43435;SDS011;36399;51.444;-2.018;2023-05-10T10:03:11;7.78;;;3.03;;
43435;SDS011;36399;51.444;-2.018;2023-05-10T10:05:40;6.22;;;2.97;;
43435;SDS011;36399;51.444;-2.018;2023-05-10T10:08:09;7.18;;;2.00;;
43435;SDS011;36399;51.444;-2.018;2023-05-10T10:10:35;7.05;;;2.28;;
43435;SDS011;36399;51.444;-2.018;2023-05-10T10:13:03;6.35;;;1.95;;
43435;SDS011;36399;51.444;-2.018;2023-05-10T10:15:31;10.02;;;3.08;;
43435;SDS011;36399;51.444;-2.018;2023-05-10T10:17:58;7.03;;;2.45;;
43435;SDS011;36399;51.444;-2.018;2023-05-10T10:20:25;6.95;;;2.80;;
43435;SDS011;36399;51.444;-2.018;2023-05-10T10:22:52;7.75;;;2.63;;
43435;SDS011;36399;51.444;-2.018;2023-05-10T10:25:18;6.32;;;2.55;;
43435;SDS011;36399;51.444;-2.018;2023-05-10T10:30:23;7.80;;;2.10;;
43435;SDS011;36399;51.444;-2.018;2023-05-10T10:35:29;7.20;;;2.28;;
43435;SDS011;36399;51.444;-2.018;2023-05-10T10:37:56;8.60;;;2.53;;
43435;SDS011;36399;51.444;-2.018;2023-05-10T10:40:32;7.50;;;2.42;;
43435;SDS011;36399;51.444;-2.018;2023-05-10T10:43:21;9.75;;;3.47;;
43435;SDS011;36399;51.444;-2.018;2023-05-10T10:48:35;15.80;;;3.15;;
43435;SDS011;36399;51.444;-2.018;2023-05-10T10:51:01;8.73;;;2.95;;
43435;SDS011;36399;51.444;-2.018;2023-05-10T10:53:28;5.05;;;1.83;;
43435;SDS011;36399;51.444;-2.018;2023-05-10T10:56:07;10.05;;;2.80;;
43435;SDS011;36399;51.444;-2.018;2023-05-10T10:58:38;8.20;;;2.38;;
43435;SDS011;36399;51.444;-2.018;2023-05-10T11:01:12;8.07;;;2.08;;
43435;SDS011;36399;51.444;-2.018;2023-05-10T11:03:38;6.15;;;1.95;;
43435;SDS011;36399;51.444;-2.018;2023-05-10T11:06:04;6.32;;;1.73;;
43435;SDS011;36399;51.444;-2.018;2023-05-10T11:08:30;7.80;;;2.25;;
43435;SDS011;36399;51.444;-2.018;2023-05-10T11:19:12;7.13;;;2.30;;
43435;SDS011;36399;51.444;-2.018;2023-05-10T11:21:49;7.35;;;2.17;;
43435;SDS011;36399;51.444;-2.018;2023-05-10T11:24:35;10.00;;;2.50;;
43435;SDS011;36399;51.444;-2.018;2023-05-10T11:27:05;6.95;;;2.03;;
43435;SDS011;36399;51.444;-2.018;2023-05-10T11:29:31;5.55;;;2.67;;
43435;SDS011;36399;51.444;-2.018;2023-05-10T11:31:57;6.20;;;2.13;;
43435;SDS011;36399;51.444;-2.018;2023-05-10T11:36:52;8.10;;;2.53;;
43435;SDS011;36399;51.444;-2.018;2023-05-10T11:39:19;5.30;;;1.40;;
43435;SDS011;36399;51.444;-2.018;2023-05-10T11:41:47;6.90;;;1.30;;
43435;SDS011;36399;51.444;-2.018;2023-05-10T11:44:14;7.18;;;1.33;;
43435;SDS011;36399;51.444;-2.018;2023-05-10T11:46:40;7.15;;;1.85;;
43435;SDS011;36399;51.444;-2.018;2023-05-10T11:49:06;2.80;;;1.15;;
43435;SDS011;36399;51.444;-2.018;2023-05-10T11:51:33;3.10;;;1.20;;
43435;SDS011;36399;51.444;-2.018;2023-05-10T11:54:04;5.10;;;1.17;;
43435;SDS011;36399;51.444;-2.018;2023-05-10T11:56:34;5.95;;;1.42;;
43435;SDS011;36399;51.444;-2.018;2023-05-10T11:59:01;5.65;;;2.08;;
43435;SDS011;36399;51.444;-2.018;2023-05-10T12:01:28;5.32;;;1.63;;
43435;SDS011;36399;51.444;-2.018;2023-05-10T12:03:55;6.15;;;2.25;;
43435;SDS011;36399;51.444;-2.018;2023-05-10T12:06:29;5.35;;;1.67;;
43435;SDS011;36399;51.444;-2.018;2023-05-10T12:08:56;4.97;;;1.60;;
43435;SDS011;36399;51.444;-2.018;2023-05-10T12:11:26;4.45;;;1.50;;
43435;SDS011;36399;51.444;-2.018;2023-05-10T12:13:53;6.72;;;1.77;;
43435;SDS011;36399;51.444;-2.018;2023-05-10T12:16:23;3.95;;;1.42;;
43435;SDS011;36399;51.444;-2.018;2023-05-10T12:18:50;7.95;;;2.15;;
43435;SDS011;36399;51.444;-2.018;2023-05-10T12:21:18;4.18;;;1.33;;
43435;SDS011;36399;51.444;-2.018;2023-05-10T12:23:46;7.82;;;2.28;;
43435;SDS011;36399;51.444;-2.018;2023-05-10T12:26:13;6.53;;;1.50;;
43435;SDS011;36399;51.444;-2.018;2023-05-10T12:28:39;4.55;;;1.42;;
43435;SDS011;36399;51.444;-2.018;2023-05-10T12:31:06;3.20;;;1.30;;
43435;SDS011;36399;51.444;-2.018;2023-05-10T12:33:42;3.60;;;1.00;;
43435;SDS011;36399;51.444;-2.018;2023-05-10T12:36:09;5.10;;;1.20;;
43435;SDS011;36399;51.444;-2.018;2023-05-10T12:38:37;2.38;;;0.90;;
43435;SDS011;36399;51.444;-2.018;2023-05-10T12:41:05;2.95;;;0.95;;
43435;SDS011;36399;51.444;-2.018;2023-05-10T12:43:33;3.50;;;1.17;;
43435;SDS011;36399;51.444;-2.018;2023-05-10T12:48:36;3.28;;;1.05;;
43435;SDS011;36399;51.444;-2.018;2023-05-10T12:51:02;11.82;;;1.55;;
43435;SDS011;36399;51.444;-2.018;2023-05-10T12:53:30;4.95;;;1.48;;
43435;SDS011;36399;51.444;-2.018;2023-05-10T12:55:56;5.30;;;1.15;;
43435;SDS011;36399;51.444;-2.018;2023-05-10T12:58:22;4.25;;;1.35;;
43435;SDS011;36399;51.444;-2.018;2023-05-10T13:00:50;3.20;;;0.90;;
43435;SDS011;36399;51.444;-2.018;2023-05-10T13:03:17;2.33;;;0.85;;
43435;SDS011;36399;51.444;-2.018;2023-05-10T13:05:43;4.97;;;1.15;;
43435;SDS011;36399;51.444;-2.018;2023-05-10T13:08:09;6.35;;;2.05;;
43435;SDS011;36399;51.444;-2.018;2023-05-10T13:10:35;3.10;;;0.85;;
43435;SDS011;36399;51.444;-2.018;2023-05-10T13:13:01;3.15;;;0.88;;
43435;SDS011;36399;51.444;-2.018;2023-05-10T13:15:27;2.33;;;0.88;;
43435;SDS011;36399;51.444;-2.018;2023-05-10T13:17:53;3.65;;;0.82;;
43435;SDS011;36399;51.444;-2.018;2023-05-10T13:20:19;4.13;;;1.27;;
43435;SDS011;36399;51.444;-2.018;2023-05-10T13:22:46;3.78;;;1.05;;
43435;SDS011;36399;51.444;-2.018;2023-05-10T13:25:12;8.30;;;1.10;;
43435;SDS011;36399;51.444;-2.018;2023-05-10T13:27:40;3.10;;;0.50;;
43435;SDS011;36399;51.444;-2.018;2023-05-10T13:30:07;2.90;;;0.70;;
43435;SDS011;36399;51.444;-2.018;2023-05-10T13:32:34;3.28;;;0.60;;
43435;SDS011;36399;51.444;-2.018;2023-05-10T13:35:01;3.92;;;0.60;;
43435;SDS011;36399;51.444;-2.018;2023-05-10T13:37:29;3.75;;;0.60;;
43435;SDS011;36399;51.444;-2.018;2023-05-10T13:39:55;5.28;;;0.85;;
43435;SDS011;36399;51.444;-2.018;2023-05-10T13:42:22;5.47;;;1.15;;
43435;SDS011;36399;51.444;-2.018;2023-05-10T13:44:51;3.97;;;0.82;;
43435;SDS011;36399;51.444;-2.018;2023-05-10T13:47:18;4.80;;;1.00;;
43435;SDS011;36399;51.444;-2.018;2023-05-10T13:49:44;3.10;;;0.82;;
43435;SDS011;36399;51.444;-2.018;2023-05-10T13:52:10;7.50;;;1.27;;
43435;SDS011;36399;51.444;-2.018;2023-05-10T13:54:36;4.78;;;1.45;;
43435;SDS011;36399;51.444;-2.018;2023-05-10T13:57:02;5.40;;;0.75;;
43435;SDS011;36399;51.444;-2.018;2023-05-10T13:59:28;2.65;;;0.77;;
43435;SDS011;36399;51.444;-2.018;2023-05-10T14:01:57;1.88;;;0.50;;
43435;SDS011;36399;51.444;-2.018;2023-05-10T14:04:28;7.20;;;0.68;;
43435;SDS011;36399;51.444;-2.018;2023-05-10T14:06:54;2.10;;;0.93;;
43435;SDS011;36399;51.444;-2.018;2023-05-10T14:09:20;1.25;;;0.43;;
43435;SDS011;36399;51.444;-2.018;2023-05-10T14:11:46;3.85;;;0.57;;
43435;SDS011;36399;51.444;-2.018;2023-05-10T14:14:12;2.70;;;0.40;;
43435;SDS011;36399;51.444;-2.018;2023-05-10T14:16:41;3.13;;;0.52;;
43435;SDS011;36399;51.444;-2.018;2023-05-10T14:19:08;1.77;;;0.52;;
43435;SDS011;36399;51.444;-2.018;2023-05-10T14:21:34;2.42;;;0.80;;
43435;SDS011;36399;51.444;-2.018;2023-05-10T14:24:00;1.95;;;0.75;;
43435;SDS011;36399;51.444;-2.018;2023-05-10T14:26:26;2.03;;;0.65;;
43435;SDS011;36399;51.444;-2.018;2023-05-10T14:28:52;2.88;;;0.57;;
43435;SDS011;36399;51.444;-2.018;2023-05-10T14:31:19;2.50;;;0.65;;
43435;SDS011;36399;51.444;-2.018;2023-05-10T14:33:50;3.13;;;0.70;;
43435;SDS011;36399;51.444;-2.018;2023-05-10T14:36:16;1.30;;;0.35;;
43435;SDS011;36399;51.444;-2.018;2023-05-10T14:38:43;3.13;;;0.60;;
43435;SDS011;36399;51.444;-2.018;2023-05-10T14:41:08;1.67;;;0.40;;
43435;SDS011;36399;51.444;-2.018;2023-05-10T14:43:39;2.15;;;0.40;;
43435;SDS011;36399;51.444;-2.018;2023-05-10T14:46:05;2.15;;;0.45;;
43435;SDS011;36399;51.444;-2.018;2023-05-10T14:48:31;1.27;;;0.43;;
43435;SDS011;36399;51.444;-2.018;2023-05-10T14:50:57;0.90;;;0.50;;
43435;SDS011;36399;51.444;-2.018;2023-05-10T14:53:23;0.40;;;0.20;;
43435;SDS011;36399;51.444;-2.018;2023-05-10T14:55:49;0.73;;;0.20;;
43435;SDS011;36399;51.444;-2.018;2023-05-10T14:58:15;0.93;;;0.25;;
43435;SDS011;36399;51.444;-2.018;2023-05-10T15:00:42;1.05;;;0.10;;